Airfield :
LOGIN :

Register | Disclaimer

   EN    FR    IT 

 










Legend :    VFR   Marginal VFR   IFR   Intensive IFR   Very Intensive IFR
Visi :
Ceiling :
>= 8 km
>= 3000ft
5 to 8 km
1000 to 3000 ft
1500m to 5 km
500 to 1000 ft
800 to 1500m
200 to 500 ft
< 800m
< 200 ft
Symbols :   Thunderstorms  Fog  Heavy snow  Heavy precipitations  Wind > 20 kt
SIGMETs :     Misc.  Thunderstorms  Icing  Turbulence  Mountain Waves  Volcanic Ashes






- Airport Elevation : 92 ft


EGXZ - RAP Topcliffe

CURRENT METAR :
  • 211250Z AUTO 34011KT 9999 NCD 10/02 Q1032

EXPIRED METARs :
  • 211220Z AUTO 34009KT 9999 NCD 09/01 Q1032
  • 211150Z AUTO 35008KT 9999 NCD 09/02 Q1032
  • 211120Z AUTO 02008KT 9999 FEW036/// 09/02 Q1033
  • 211050Z AUTO 02008KT 9999 FEW036/// 10/02 Q1032
  • 211020Z AUTO 01010KT 9999 FEW034/// 09/01 Q1033
  • 210950Z AUTO 01009KT 9999 FEW035/// SCT066/// 09/02 Q1033
  • 210920Z AUTO 02008KT 9999 SCT032/// BKN100/// 08/01 Q1033
  • 210850Z AUTO 36008KT 9999 BKN032/// 07/01 Q1033
  • 210820Z AUTO 01008KT 9999 BKN089/// 08/02 Q1033

Expired Forecast.



MET'MAP, your aeronautical weather chart ! - Copyright ORBIFLY December 2007 - Disclaimer

ORBIFLY MET'MAP TEAM :

Programming & Development : Alexandra Zaïnal
Original concept : Baudouin d'Aumeries
Technical & hardware support : Manuel Goepfert
Assistance : Marc-Olivier Méhu




SOURCES & CREDITS :

   NOAA